This is the latest recevied weather packets stored in our database for station/object KQ4UWH. If no packets are shown the sender has not sent any weather packets the latest 1 day(s).
| Time | Temp. | Humidity | Pressure | Rain* | Wind** | Luminosity | Snow |
|---|---|---|---|---|---|---|---|
| 1777995729 | 22.78° C | 46% | 1239.7 hPa | 0 mm | 0 m/s | 672 W/m² | - |
| 1777995426 | 22.78° C | 45% | 1239.7 hPa | 0 mm | 0.45 m/s, 152° | 33 W/m² | - |
| 1777995123 | 22.78° C | 46% | 1239.7 hPa | 0 mm | 0.89 m/s, 128° | 650 W/m² | - |
| 1777994820 | 22.22° C | 47% | 1239.7 hPa | 0 mm | 1.34 m/s, 179° | 54 W/m² | - |
| 1777994516 | 22.22° C | 49% | 1239.7 hPa | 0 mm | 0.89 m/s, 158° | 632 W/m² | - |
| 1777994211 | 21.67° C | 50% | 1239.7 hPa | 0 mm | 0.45 m/s, 166° | 625 W/m² | - |
| 1777993909 | 21.67° C | 49% | 1239.7 hPa | 0 mm | 0.89 m/s, 171° | 612 W/m² | - |
| 1777993605 | 21.11° C | 52% | 1239.7 hPa | 0 mm | 0 m/s | 225 W/m² | - |
| 1777993302 | 21.11° C | 49% | 1239.7 hPa | 0 mm | 0.89 m/s, 168° | 65 W/m² | - |
| 1777992997 | 21.11° C | 52% | 1239.7 hPa | 0 mm | 1.34 m/s, 211° | 40 W/m² | - |
| 1777992696 | 20.56° C | 53% | 1239.7 hPa | 0 mm | 0.89 m/s, 177° | 81 W/m² | - |
| 1777992393 | 20.56° C | 59% | 1239.7 hPa | 0 mm | 0 m/s | 68 W/m² | - |
| 1777992091 | 20° C | 58% | 1239.7 hPa | 0 mm | 0 m/s | 60 W/m² | - |
| 1777991788 | 20° C | 59% | 1239.7 hPa | 0 mm | 0 m/s | 84 W/m² | - |
| 1777991485 | 19.44° C | 63% | 1239.7 hPa | 0 mm | 0 m/s | 197 W/m² | - |
| 1777991182 | 18.89° C | 63% | 1239.7 hPa | 0 mm | 0 m/s | 41 W/m² | - |
| 1777990880 | 18.89° C | 64% | 1239.7 hPa | 0 mm | 0 m/s | 43 W/m² | - |
| 1777990577 | 18.33° C | 64% | 1239.7 hPa | 0 mm | 0.45 m/s, 143° | 125 W/m² | - |
| 1777990274 | 18.33° C | 66% | 1239.7 hPa | 0 mm | 0 m/s | 114 W/m² | - |
| 1777989970 | 17.78° C | 67% | 1239.7 hPa | 0 mm | 0 m/s | 49 W/m² | - |
| 1777989668 | 17.22° C | 68% | 1239.7 hPa | 0 mm | 0 m/s | 87 W/m² | - |
| 1777989363 | 17.22° C | 70% | 1239.7 hPa | 0 mm | 0 m/s | 41 W/m² | - |
| 1777989060 | 16.67° C | 71% | 1239.7 hPa | 0 mm | 0 m/s | 39 W/m² | - |
| 1777988756 | 16.67° C | 71% | 1239.7 hPa | 0 mm | 0 m/s | 35 W/m² | - |
| 1777988454 | 16.67° C | 70% | 1239.7 hPa | 0 mm | 0 m/s | 70 W/m² | - |
* Rain latest hour (hover to see other rain measurements)
** Current wind speed in m/s (hover to see current wind gust speed)